Urb Riachuelo, Puerto Rico
Current Conditions -  °F | °C
As of 1:56 PM on Friday 31 Oct 2014 (Local Time) from TJSJ Reporting Station
Broken Clouds Broken Clouds  
Wind Chill: 82°   Ceiling: 8000
Heat Index: 90°   Visibility: 10mi
Dew Point: 77°   Wind: 3mph
Humidity: 85%   Direction: 120°ESE
Pressure: 29.85"   Gusts: NA
Location:  18.3569°N, 66.0247°W
Report Text: TJSJ 311756Z 12003KT 10SM SCT060 BKN080 28/25 A2985 RMK AO2 TSE23RAE38 SLP108 TS DSIPTD P0000 60006 T02780250 10317 20267 58014
Loading
Personal Weather Stations






























Interactive Weather Map
Tropical Storm Tracking
New forecast layout! Learn more

10-Day Weather Forecast

Advertisements
Track Severe Weather on mobile